sensor_id;sensor_type;location;lat;lon;timestamp;P1;durP1;ratioP1;P2;durP2;ratioP2
2940;SDS011;1480;51.456;6.670;2023-07-22T00:00:00;10.30;;;4.03;;
2940;SDS011;1480;51.456;6.670;2023-07-22T00:02:32;8.73;;;4.50;;
2940;SDS011;1480;51.456;6.670;2023-07-22T00:04:58;4.77;;;2.77;;
2940;SDS011;1480;51.456;6.670;2023-07-22T00:07:25;4.40;;;3.53;;
2940;SDS011;1480;51.456;6.670;2023-07-22T00:09:52;8.20;;;4.47;;
2940;SDS011;1480;51.456;6.670;2023-07-22T00:12:18;5.00;;;2.63;;
2940;SDS011;1480;51.456;6.670;2023-07-22T00:14:45;9.40;;;4.47;;
2940;SDS011;1480;51.456;6.670;2023-07-22T00:17:11;4.93;;;3.30;;
2940;SDS011;1480;51.456;6.670;2023-07-22T00:19:40;4.50;;;3.00;;
2940;SDS011;1480;51.456;6.670;2023-07-22T00:22:06;8.90;;;4.10;;
2940;SDS011;1480;51.456;6.670;2023-07-22T00:24:33;6.47;;;3.33;;
2940;SDS011;1480;51.456;6.670;2023-07-22T00:27:00;4.93;;;3.97;;
2940;SDS011;1480;51.456;6.670;2023-07-22T00:29:27;7.57;;;4.07;;
2940;SDS011;1480;51.456;6.670;2023-07-22T00:31:54;5.87;;;3.10;;
2940;SDS011;1480;51.456;6.670;2023-07-22T00:34:20;4.97;;;3.40;;
2940;SDS011;1480;51.456;6.670;2023-07-22T00:36:49;5.57;;;3.17;;
2940;SDS011;1480;51.456;6.670;2023-07-22T00:39:16;6.23;;;4.20;;
2940;SDS011;1480;51.456;6.670;2023-07-22T00:41:43;7.00;;;3.70;;
2940;SDS011;1480;51.456;6.670;2023-07-22T00:44:14;8.80;;;3.47;;
2940;SDS011;1480;51.456;6.670;2023-07-22T00:46:40;9.70;;;3.90;;
2940;SDS011;1480;51.456;6.670;2023-07-22T00:49:07;4.30;;;2.90;;
2940;SDS011;1480;51.456;6.670;2023-07-22T00:51:34;4.63;;;2.70;;
2940;SDS011;1480;51.456;6.670;2023-07-22T00:54:02;6.10;;;3.63;;
2940;SDS011;1480;51.456;6.670;2023-07-22T00:56:30;5.77;;;3.40;;
2940;SDS011;1480;51.456;6.670;2023-07-22T00:58:58;6.10;;;3.60;;
2940;SDS011;1480;51.456;6.670;2023-07-22T01:01:25;7.63;;;3.27;;
2940;SDS011;1480;51.456;6.670;2023-07-22T01:03:52;5.03;;;3.90;;
2940;SDS011;1480;51.456;6.670;2023-07-22T01:06:19;5.37;;;3.20;;
2940;SDS011;1480;51.456;6.670;2023-07-22T01:08:46;5.13;;;3.30;;
2940;SDS011;1480;51.456;6.670;2023-07-22T01:11:14;5.30;;;3.07;;
2940;SDS011;1480;51.456;6.670;2023-07-22T01:13:41;4.10;;;2.90;;
2940;SDS011;1480;51.456;6.670;2023-07-22T01:16:08;5.10;;;3.07;;
2940;SDS011;1480;51.456;6.670;2023-07-22T01:18:35;6.30;;;3.87;;
2940;SDS011;1480;51.456;6.670;2023-07-22T01:21:01;5.87;;;3.70;;
2940;SDS011;1480;51.456;6.670;2023-07-22T01:23:30;8.00;;;3.77;;
2940;SDS011;1480;51.456;6.670;2023-07-22T01:25:56;5.80;;;3.70;;
2940;SDS011;1480;51.456;6.670;2023-07-22T01:28:23;11.00;;;2.67;;
2940;SDS011;1480;51.456;6.670;2023-07-22T01:30:50;9.60;;;3.83;;
2940;SDS011;1480;51.456;6.670;2023-07-22T01:33:16;6.00;;;3.30;;
2940;SDS011;1480;51.456;6.670;2023-07-22T01:35:43;6.00;;;3.47;;
2940;SDS011;1480;51.456;6.670;2023-07-22T01:38:10;4.43;;;3.50;;
2940;SDS011;1480;51.456;6.670;2023-07-22T01:40:38;6.30;;;3.70;;
2940;SDS011;1480;51.456;6.670;2023-07-22T01:43:04;10.20;;;3.13;;
2940;SDS011;1480;51.456;6.670;2023-07-22T01:45:31;5.20;;;2.97;;
2940;SDS011;1480;51.456;6.670;2023-07-22T01:47:58;5.40;;;3.33;;
2940;SDS011;1480;51.456;6.670;2023-07-22T01:50:24;6.80;;;3.97;;
2940;SDS011;1480;51.456;6.670;2023-07-22T01:52:51;6.60;;;3.40;;
2940;SDS011;1480;51.456;6.670;2023-07-22T01:55:17;5.87;;;3.43;;
2940;SDS011;1480;51.456;6.670;2023-07-22T01:57:45;6.03;;;3.27;;
2940;SDS011;1480;51.456;6.670;2023-07-22T02:00:13;6.23;;;3.80;;
2940;SDS011;1480;51.456;6.670;2023-07-22T02:02:40;5.90;;;3.73;;
2940;SDS011;1480;51.456;6.670;2023-07-22T02:05:08;6.17;;;3.53;;
2940;SDS011;1480;51.456;6.670;2023-07-22T02:07:35;5.87;;;3.97;;
2940;SDS011;1480;51.456;6.670;2023-07-22T02:10:02;4.63;;;2.70;;
2940;SDS011;1480;51.456;6.670;2023-07-22T02:12:29;4.80;;;2.87;;
2940;SDS011;1480;51.456;6.670;2023-07-22T02:14:57;6.67;;;3.73;;
2940;SDS011;1480;51.456;6.670;2023-07-22T02:17:24;6.67;;;3.77;;
2940;SDS011;1480;51.456;6.670;2023-07-22T02:19:51;6.20;;;3.73;;
2940;SDS011;1480;51.456;6.670;2023-07-22T02:22:17;6.27;;;3.80;;
2940;SDS011;1480;51.456;6.670;2023-07-22T02:24:44;5.90;;;3.10;;
2940;SDS011;1480;51.456;6.670;2023-07-22T02:27:11;9.23;;;3.13;;
2940;SDS011;1480;51.456;6.670;2023-07-22T02:29:37;6.87;;;2.97;;
2940;SDS011;1480;51.456;6.670;2023-07-22T02:32:06;5.40;;;3.10;;
2940;SDS011;1480;51.456;6.670;2023-07-22T02:34:33;5.37;;;2.70;;
2940;SDS011;1480;51.456;6.670;2023-07-22T02:37:00;4.60;;;3.03;;
2940;SDS011;1480;51.456;6.670;2023-07-22T02:39:27;7.13;;;3.77;;
2940;SDS011;1480;51.456;6.670;2023-07-22T02:41:53;6.90;;;3.60;;
2940;SDS011;1480;51.456;6.670;2023-07-22T02:44:20;4.20;;;2.60;;
2940;SDS011;1480;51.456;6.670;2023-07-22T02:46:46;5.70;;;3.40;;
2940;SDS011;1480;51.456;6.670;2023-07-22T02:49:15;8.60;;;3.50;;
2940;SDS011;1480;51.456;6.670;2023-07-22T02:51:41;7.40;;;3.70;;
2940;SDS011;1480;51.456;6.670;2023-07-22T02:54:08;7.90;;;3.77;;
2940;SDS011;1480;51.456;6.670;2023-07-22T02:56:35;4.67;;;3.47;;
2940;SDS011;1480;51.456;6.670;2023-07-22T02:59:01;7.67;;;3.70;;
2940;SDS011;1480;51.456;6.670;2023-07-22T03:01:28;9.23;;;4.50;;
2940;SDS011;1480;51.456;6.670;2023-07-22T03:03:56;7.17;;;3.20;;
2940;SDS011;1480;51.456;6.670;2023-07-22T03:06:24;5.03;;;3.20;;
2940;SDS011;1480;51.456;6.670;2023-07-22T03:08:51;10.83;;;4.83;;
2940;SDS011;1480;51.456;6.670;2023-07-22T03:11:18;6.50;;;2.80;;
2940;SDS011;1480;51.456;6.670;2023-07-22T03:13:45;6.47;;;3.27;;
2940;SDS011;1480;51.456;6.670;2023-07-22T03:16:13;4.37;;;2.83;;
2940;SDS011;1480;51.456;6.670;2023-07-22T03:18:40;5.50;;;3.67;;
2940;SDS011;1480;51.456;6.670;2023-07-22T03:21:08;5.73;;;3.33;;
2940;SDS011;1480;51.456;6.670;2023-07-22T03:23:36;5.20;;;4.17;;
2940;SDS011;1480;51.456;6.670;2023-07-22T03:26:03;5.67;;;2.90;;
2940;SDS011;1480;51.456;6.670;2023-07-22T03:28:30;5.17;;;3.50;;
2940;SDS011;1480;51.456;6.670;2023-07-22T03:30:56;8.47;;;3.17;;
2940;SDS011;1480;51.456;6.670;2023-07-22T03:33:23;3.83;;;2.80;;
2940;SDS011;1480;51.456;6.670;2023-07-22T03:35:50;8.33;;;3.90;;
2940;SDS011;1480;51.456;6.670;2023-07-22T03:38:16;6.33;;;3.77;;
2940;SDS011;1480;51.456;6.670;2023-07-22T03:40:45;11.47;;;3.77;;
2940;SDS011;1480;51.456;6.670;2023-07-22T03:43:12;6.60;;;3.53;;
2940;SDS011;1480;51.456;6.670;2023-07-22T03:45:39;6.77;;;4.13;;
2940;SDS011;1480;51.456;6.670;2023-07-22T03:48:05;6.60;;;3.77;;
2940;SDS011;1480;51.456;6.670;2023-07-22T03:50:32;6.77;;;3.77;;
2940;SDS011;1480;51.456;6.670;2023-07-22T03:52:59;7.53;;;3.70;;
2940;SDS011;1480;51.456;6.670;2023-07-22T03:55:25;7.17;;;3.40;;
2940;SDS011;1480;51.456;6.670;2023-07-22T03:57:54;3.90;;;2.63;;
2940;SDS011;1480;51.456;6.670;2023-07-22T04:00:20;7.90;;;3.67;;
2940;SDS011;1480;51.456;6.670;2023-07-22T04:02:47;8.50;;;3.20;;
2940;SDS011;1480;51.456;6.670;2023-07-22T04:05:14;4.37;;;2.77;;
2940;SDS011;1480;51.456;6.670;2023-07-22T04:07:40;6.80;;;3.30;;
2940;SDS011;1480;51.456;6.670;2023-07-22T04:10:08;4.40;;;2.80;;
2940;SDS011;1480;51.456;6.670;2023-07-22T04:12:35;5.73;;;2.80;;
2940;SDS011;1480;51.456;6.670;2023-07-22T04:15:03;7.13;;;3.00;;
2940;SDS011;1480;51.456;6.670;2023-07-22T04:17:30;4.70;;;2.67;;
2940;SDS011;1480;51.456;6.670;2023-07-22T04:19:57;6.90;;;3.37;;
2940;SDS011;1480;51.456;6.670;2023-07-22T04:22:24;6.10;;;3.50;;
2940;SDS011;1480;51.456;6.670;2023-07-22T04:24:50;7.17;;;3.60;;
2940;SDS011;1480;51.456;6.670;2023-07-22T04:27:17;8.80;;;3.50;;
2940;SDS011;1480;51.456;6.670;2023-07-22T04:29:45;5.53;;;2.60;;
2940;SDS011;1480;51.456;6.670;2023-07-22T04:32:13;5.27;;;3.63;;
2940;SDS011;1480;51.456;6.670;2023-07-22T04:34:39;5.53;;;2.43;;
2940;SDS011;1480;51.456;6.670;2023-07-22T04:37:07;5.97;;;2.57;;
2940;SDS011;1480;51.456;6.670;2023-07-22T04:39:33;7.67;;;2.87;;
2940;SDS011;1480;51.456;6.670;2023-07-22T04:42:00;5.30;;;3.37;;
2940;SDS011;1480;51.456;6.670;2023-07-22T04:44:27;7.37;;;3.90;;
2940;SDS011;1480;51.456;6.670;2023-07-22T04:46:53;6.03;;;3.03;;
2940;SDS011;1480;51.456;6.670;2023-07-22T04:49:21;9.90;;;3.43;;
2940;SDS011;1480;51.456;6.670;2023-07-22T04:51:48;6.73;;;2.70;;
2940;SDS011;1480;51.456;6.670;2023-07-22T04:54:15;3.60;;;2.33;;
2940;SDS011;1480;51.456;6.670;2023-07-22T04:56:42;5.63;;;3.17;;
2940;SDS011;1480;51.456;6.670;2023-07-22T04:59:08;5.90;;;3.37;;
2940;SDS011;1480;51.456;6.670;2023-07-22T05:01:35;5.23;;;2.80;;
2940;SDS011;1480;51.456;6.670;2023-07-22T05:04:02;7.80;;;2.50;;
2940;SDS011;1480;51.456;6.670;2023-07-22T05:06:31;5.20;;;3.30;;
2940;SDS011;1480;51.456;6.670;2023-07-22T05:08:58;4.53;;;2.80;;
2940;SDS011;1480;51.456;6.670;2023-07-22T05:11:24;4.23;;;2.10;;
2940;SDS011;1480;51.456;6.670;2023-07-22T05:13:51;8.13;;;3.37;;
2940;SDS011;1480;51.456;6.670;2023-07-22T05:16:18;9.37;;;3.43;;
2940;SDS011;1480;51.456;6.670;2023-07-22T05:18:46;4.47;;;2.63;;
2940;SDS011;1480;51.456;6.670;2023-07-22T05:21:13;3.97;;;2.33;;
2940;SDS011;1480;51.456;6.670;2023-07-22T05:23:41;7.20;;;2.80;;
2940;SDS011;1480;51.456;6.670;2023-07-22T05:26:07;3.70;;;2.33;;
2940;SDS011;1480;51.456;6.670;2023-07-22T05:28:34;5.07;;;2.80;;
2940;SDS011;1480;51.456;6.670;2023-07-22T05:31:00;12.50;;;3.10;;
2940;SDS011;1480;51.456;6.670;2023-07-22T05:33:27;5.80;;;3.17;;
2940;SDS011;1480;51.456;6.670;2023-07-22T05:35:54;7.67;;;3.00;;
2940;SDS011;1480;51.456;6.670;2023-07-22T05:38:20;5.10;;;3.50;;
2940;SDS011;1480;51.456;6.670;2023-07-22T05:40:48;6.43;;;3.70;;
2940;SDS011;1480;51.456;6.670;2023-07-22T05:43:15;4.53;;;2.67;;
2940;SDS011;1480;51.456;6.670;2023-07-22T05:45:42;4.87;;;3.40;;
2940;SDS011;1480;51.456;6.670;2023-07-22T05:48:08;8.23;;;3.40;;
2940;SDS011;1480;51.456;6.670;2023-07-22T05:50:35;7.37;;;3.23;;
2940;SDS011;1480;51.456;6.670;2023-07-22T05:53:02;4.07;;;2.70;;
2940;SDS011;1480;51.456;6.670;2023-07-22T05:55:28;5.30;;;3.00;;
2940;SDS011;1480;51.456;6.670;2023-07-22T05:57:56;5.47;;;2.83;;
2940;SDS011;1480;51.456;6.670;2023-07-22T06:00:24;6.20;;;3.50;;
2940;SDS011;1480;51.456;6.670;2023-07-22T06:02:51;5.87;;;3.90;;
2940;SDS011;1480;51.456;6.670;2023-07-22T06:05:17;7.03;;;3.83;;
2940;SDS011;1480;51.456;6.670;2023-07-22T06:07:44;6.50;;;3.87;;
2940;SDS011;1480;51.456;6.670;2023-07-22T06:10:10;6.10;;;3.10;;
2940;SDS011;1480;51.456;6.670;2023-07-22T06:12:37;5.37;;;2.93;;
2940;SDS011;1480;51.456;6.670;2023-07-22T06:15:06;6.60;;;3.50;;
2940;SDS011;1480;51.456;6.670;2023-07-22T06:17:33;5.77;;;3.37;;
2940;SDS011;1480;51.456;6.670;2023-07-22T06:19:59;5.40;;;3.63;;
2940;SDS011;1480;51.456;6.670;2023-07-22T06:22:26;5.13;;;3.20;;
2940;SDS011;1480;51.456;6.670;2023-07-22T06:24:53;6.17;;;3.47;;
2940;SDS011;1480;51.456;6.670;2023-07-22T06:27:20;4.77;;;3.30;;
2940;SDS011;1480;51.456;6.670;2023-07-22T06:29:47;10.03;;;3.50;;
2940;SDS011;1480;51.456;6.670;2023-07-22T06:32:15;5.87;;;4.03;;
2940;SDS011;1480;51.456;6.670;2023-07-22T06:34:41;7.13;;;4.03;;
2940;SDS011;1480;51.456;6.670;2023-07-22T06:37:08;5.83;;;3.13;;
2940;SDS011;1480;51.456;6.670;2023-07-22T06:39:35;5.23;;;3.00;;
2940;SDS011;1480;51.456;6.670;2023-07-22T06:42:01;7.20;;;3.80;;
2940;SDS011;1480;51.456;6.670;2023-07-22T06:44:28;7.43;;;4.20;;
2940;SDS011;1480;51.456;6.670;2023-07-22T06:46:55;6.40;;;3.67;;
2940;SDS011;1480;51.456;6.670;2023-07-22T06:49:23;7.70;;;3.63;;
2940;SDS011;1480;51.456;6.670;2023-07-22T06:51:49;5.57;;;3.20;;
2940;SDS011;1480;51.456;6.670;2023-07-22T06:54:17;5.17;;;2.83;;
2940;SDS011;1480;51.456;6.670;2023-07-22T06:56:43;8.57;;;3.63;;
2940;SDS011;1480;51.456;6.670;2023-07-22T06:59:10;9.80;;;3.50;;
2940;SDS011;1480;51.456;6.670;2023-07-22T07:01:37;7.37;;;3.63;;
2940;SDS011;1480;51.456;6.670;2023-07-22T07:04:03;5.10;;;3.67;;
2940;SDS011;1480;51.456;6.670;2023-07-22T07:06:31;7.03;;;3.63;;
2940;SDS011;1480;51.456;6.670;2023-07-22T07:08:58;4.27;;;2.90;;
2940;SDS011;1480;51.456;6.670;2023-07-22T07:11:30;7.30;;;3.60;;
2940;SDS011;1480;51.456;6.670;2023-07-22T07:13:56;6.30;;;3.77;;
2940;SDS011;1480;51.456;6.670;2023-07-22T07:16:24;6.00;;;3.80;;
2940;SDS011;1480;51.456;6.670;2023-07-22T07:18:51;8.43;;;3.83;;
2940;SDS011;1480;51.456;6.670;2023-07-22T07:21:19;8.93;;;4.50;;
2940;SDS011;1480;51.456;6.670;2023-07-22T07:23:47;5.83;;;3.70;;
2940;SDS011;1480;51.456;6.670;2023-07-22T07:26:14;5.47;;;3.50;;
2940;SDS011;1480;51.456;6.670;2023-07-22T07:28:40;5.37;;;2.87;;
2940;SDS011;1480;51.456;6.670;2023-07-22T07:31:07;8.00;;;4.10;;
2940;SDS011;1480;51.456;6.670;2023-07-22T07:33:33;5.67;;;3.80;;
2940;SDS011;1480;51.456;6.670;2023-07-22T07:36:00;6.23;;;3.40;;
2940;SDS011;1480;51.456;6.670;2023-07-22T07:38:28;5.87;;;3.23;;
2940;SDS011;1480;51.456;6.670;2023-07-22T07:40:57;5.23;;;3.53;;
2940;SDS011;1480;51.456;6.670;2023-07-22T07:43:25;7.77;;;3.70;;
2940;SDS011;1480;51.456;6.670;2023-07-22T07:48:43;6.50;;;3.67;;
2940;SDS011;1480;51.456;6.670;2023-07-22T07:51:11;5.93;;;3.50;;
2940;SDS011;1480;51.456;6.670;2023-07-22T07:53:38;5.50;;;3.40;;
2940;SDS011;1480;51.456;6.670;2023-07-22T07:56:06;6.87;;;3.60;;
2940;SDS011;1480;51.456;6.670;2023-07-22T07:58:33;8.30;;;3.07;;
2940;SDS011;1480;51.456;6.670;2023-07-22T08:01:00;5.13;;;2.97;;
2940;SDS011;1480;51.456;6.670;2023-07-22T08:03:27;5.00;;;3.10;;
2940;SDS011;1480;51.456;6.670;2023-07-22T08:05:53;8.20;;;3.50;;
2940;SDS011;1480;51.456;6.670;2023-07-22T08:08:21;6.97;;;4.50;;
2940;SDS011;1480;51.456;6.670;2023-07-22T08:10:48;7.00;;;3.77;;
2940;SDS011;1480;51.456;6.670;2023-07-22T08:13:25;6.27;;;3.60;;
2940;SDS011;1480;51.456;6.670;2023-07-22T08:15:52;6.70;;;3.33;;
2940;SDS011;1480;51.456;6.670;2023-07-22T08:18:18;9.17;;;4.40;;
2940;SDS011;1480;51.456;6.670;2023-07-22T08:20:45;6.77;;;3.97;;
2940;SDS011;1480;51.456;6.670;2023-07-22T08:23:12;4.50;;;2.70;;
2940;SDS011;1480;51.456;6.670;2023-07-22T08:25:39;8.13;;;3.10;;
2940;SDS011;1480;51.456;6.670;2023-07-22T08:28:06;5.30;;;2.93;;
2940;SDS011;1480;51.456;6.670;2023-07-22T08:30:34;6.70;;;3.10;;
2940;SDS011;1480;51.456;6.670;2023-07-22T08:33:01;5.80;;;2.90;;
2940;SDS011;1480;51.456;6.670;2023-07-22T08:35:28;4.30;;;2.30;;
2940;SDS011;1480;51.456;6.670;2023-07-22T08:37:54;5.67;;;3.17;;
2940;SDS011;1480;51.456;6.670;2023-07-22T08:40:21;4.33;;;2.53;;
2940;SDS011;1480;51.456;6.670;2023-07-22T08:42:48;4.60;;;3.03;;
2940;SDS011;1480;51.456;6.670;2023-07-22T08:45:16;5.90;;;2.97;;
2940;SDS011;1480;51.456;6.670;2023-07-22T08:47:45;7.23;;;2.70;;
2940;SDS011;1480;51.456;6.670;2023-07-22T08:50:13;5.13;;;3.33;;
2940;SDS011;1480;51.456;6.670;2023-07-22T08:52:41;5.10;;;3.10;;
2940;SDS011;1480;51.456;6.670;2023-07-22T08:55:08;4.73;;;2.97;;
2940;SDS011;1480;51.456;6.670;2023-07-22T08:57:36;6.37;;;2.90;;
2940;SDS011;1480;51.456;6.670;2023-07-22T09:00:03;4.43;;;3.10;;
2940;SDS011;1480;51.456;6.670;2023-07-22T09:02:32;7.70;;;2.80;;
2940;SDS011;1480;51.456;6.670;2023-07-22T09:05:01;4.60;;;2.43;;
2940;SDS011;1480;51.456;6.670;2023-07-22T09:07:28;3.90;;;2.23;;
2940;SDS011;1480;51.456;6.670;2023-07-22T09:09:55;3.33;;;2.13;;
2940;SDS011;1480;51.456;6.670;2023-07-22T09:12:23;4.80;;;2.10;;
2940;SDS011;1480;51.456;6.670;2023-07-22T09:14:49;5.00;;;3.57;;
2940;SDS011;1480;51.456;6.670;2023-07-22T09:17:16;3.87;;;2.03;;
2940;SDS011;1480;51.456;6.670;2023-07-22T09:19:43;4.67;;;2.40;;
2940;SDS011;1480;51.456;6.670;2023-07-22T09:22:11;4.23;;;2.67;;
2940;SDS011;1480;51.456;6.670;2023-07-22T09:24:37;6.27;;;2.47;;
2940;SDS011;1480;51.456;6.670;2023-07-22T09:27:04;3.23;;;2.03;;
2940;SDS011;1480;51.456;6.670;2023-07-22T09:29:34;3.70;;;2.40;;
2940;SDS011;1480;51.456;6.670;2023-07-22T09:32:02;3.77;;;2.20;;
2940;SDS011;1480;51.456;6.670;2023-07-22T09:34:29;3.40;;;1.90;;
2940;SDS011;1480;51.456;6.670;2023-07-22T09:36:56;4.30;;;1.80;;
2940;SDS011;1480;51.456;6.670;2023-07-22T09:39:26;4.43;;;2.10;;
2940;SDS011;1480;51.456;6.670;2023-07-22T09:41:53;2.83;;;1.90;;
2940;SDS011;1480;51.456;6.670;2023-07-22T09:44:20;3.17;;;2.23;;
2940;SDS011;1480;51.456;6.670;2023-07-22T09:46:47;6.70;;;1.90;;
2940;SDS011;1480;51.456;6.670;2023-07-22T09:49:15;2.30;;;1.70;;
2940;SDS011;1480;51.456;6.670;2023-07-22T09:51:43;4.03;;;2.10;;
2940;SDS011;1480;51.456;6.670;2023-07-22T09:54:09;5.00;;;2.10;;
2940;SDS011;1480;51.456;6.670;2023-07-22T09:56:44;4.10;;;1.87;;
2940;SDS011;1480;51.456;6.670;2023-07-22T09:59:12;4.30;;;1.90;;
2940;SDS011;1480;51.456;6.670;2023-07-22T10:01:39;5.23;;;2.07;;
2940;SDS011;1480;51.456;6.670;2023-07-22T10:04:06;3.10;;;1.87;;
2940;SDS011;1480;51.456;6.670;2023-07-22T10:06:33;5.60;;;2.47;;
2940;SDS011;1480;51.456;6.670;2023-07-22T10:09:01;4.30;;;1.87;;
2940;SDS011;1480;51.456;6.670;2023-07-22T10:11:32;3.10;;;1.93;;
2940;SDS011;1480;51.456;6.670;2023-07-22T10:14:00;6.73;;;2.10;;
2940;SDS011;1480;51.456;6.670;2023-07-22T10:16:27;3.07;;;2.10;;
2940;SDS011;1480;51.456;6.670;2023-07-22T10:18:54;3.60;;;1.83;;
2940;SDS011;1480;51.456;6.670;2023-07-22T10:21:21;4.90;;;1.83;;
2940;SDS011;1480;51.456;6.670;2023-07-22T10:23:49;4.73;;;2.17;;
2940;SDS011;1480;51.456;6.670;2023-07-22T10:26:17;4.53;;;2.27;;
2940;SDS011;1480;51.456;6.670;2023-07-22T10:28:45;3.20;;;1.87;;
2940;SDS011;1480;51.456;6.670;2023-07-22T10:31:14;2.80;;;1.60;;
2940;SDS011;1480;51.456;6.670;2023-07-22T10:33:44;3.43;;;1.70;;
2940;SDS011;1480;51.456;6.670;2023-07-22T10:36:13;2.40;;;1.60;;
2940;SDS011;1480;51.456;6.670;2023-07-22T10:38:41;3.30;;;1.70;;
2940;SDS011;1480;51.456;6.670;2023-07-22T10:41:11;2.60;;;1.50;;
2940;SDS011;1480;51.456;6.670;2023-07-22T10:43:39;3.07;;;1.60;;
2940;SDS011;1480;51.456;6.670;2023-07-22T10:46:06;2.23;;;1.33;;
2940;SDS011;1480;51.456;6.670;2023-07-22T10:48:37;10.50;;;1.80;;
2940;SDS011;1480;51.456;6.670;2023-07-22T10:51:07;2.43;;;1.70;;
2940;SDS011;1480;51.456;6.670;2023-07-22T10:53:37;4.33;;;1.60;;
2940;SDS011;1480;51.456;6.670;2023-07-22T10:56:14;2.50;;;1.70;;
2940;SDS011;1480;51.456;6.670;2023-07-22T10:58:57;9.23;;;1.67;;
2940;SDS011;1480;51.456;6.670;2023-07-22T11:01:30;2.43;;;1.40;;
2940;SDS011;1480;51.456;6.670;2023-07-22T11:04:22;2.07;;;1.30;;
2940;SDS011;1480;51.456;6.670;2023-07-22T11:06:56;2.73;;;1.80;;
2940;SDS011;1480;51.456;6.670;2023-07-22T11:09:34;3.53;;;1.83;;
2940;SDS011;1480;51.456;6.670;2023-07-22T11:12:01;2.23;;;1.43;;
2940;SDS011;1480;51.456;6.670;2023-07-22T11:14:29;1.90;;;1.00;;
2940;SDS011;1480;51.456;6.670;2023-07-22T11:16:57;3.37;;;1.30;;
2940;SDS011;1480;51.456;6.670;2023-07-22T11:19:27;2.53;;;1.40;;
2940;SDS011;1480;51.456;6.670;2023-07-22T11:21:53;3.57;;;2.00;;
2940;SDS011;1480;51.456;6.670;2023-07-22T11:24:21;3.50;;;1.70;;
2940;SDS011;1480;51.456;6.670;2023-07-22T11:26:49;2.53;;;1.30;;
2940;SDS011;1480;51.456;6.670;2023-07-22T11:29:16;2.13;;;1.27;;
2940;SDS011;1480;51.456;6.670;2023-07-22T11:31:44;3.10;;;1.50;;
2940;SDS011;1480;51.456;6.670;2023-07-22T11:34:12;1.87;;;1.13;;
2940;SDS011;1480;51.456;6.670;2023-07-22T11:36:41;3.30;;;1.70;;
2940;SDS011;1480;51.456;6.670;2023-07-22T11:39:09;1.87;;;1.40;;
2940;SDS011;1480;51.456;6.670;2023-07-22T11:41:37;3.10;;;1.47;;
2940;SDS011;1480;51.456;6.670;2023-07-22T11:44:06;5.33;;;1.53;;
2940;SDS011;1480;51.456;6.670;2023-07-22T11:46:35;1.57;;;0.93;;
2940;SDS011;1480;51.456;6.670;2023-07-22T11:49:02;2.23;;;1.43;;
2940;SDS011;1480;51.456;6.670;2023-07-22T11:51:29;2.00;;;1.03;;
2940;SDS011;1480;51.456;6.670;2023-07-22T11:53:57;2.37;;;1.03;;
2940;SDS011;1480;51.456;6.670;2023-07-22T11:56:25;2.67;;;1.00;;
2940;SDS011;1480;51.456;6.670;2023-07-22T11:58:53;2.40;;;1.60;;
2940;SDS011;1480;51.456;6.670;2023-07-22T12:01:22;1.77;;;1.03;;
2940;SDS011;1480;51.456;6.670;2023-07-22T12:03:50;2.43;;;1.07;;
2940;SDS011;1480;51.456;6.670;2023-07-22T12:06:21;2.07;;;1.20;;
2940;SDS011;1480;51.456;6.670;2023-07-22T12:08:51;2.73;;;1.20;;
2940;SDS011;1480;51.456;6.670;2023-07-22T12:11:20;4.10;;;1.47;;
2940;SDS011;1480;51.456;6.670;2023-07-22T12:13:49;3.63;;;1.30;;
2940;SDS011;1480;51.456;6.670;2023-07-22T12:16:21;2.50;;;1.43;;
2940;SDS011;1480;51.456;6.670;2023-07-22T12:18:49;4.20;;;2.20;;
2940;SDS011;1480;51.456;6.670;2023-07-22T12:21:16;2.67;;;1.43;;
2940;SDS011;1480;51.456;6.670;2023-07-22T12:23:43;2.77;;;1.60;;
2940;SDS011;1480;51.456;6.670;2023-07-22T12:26:09;2.60;;;1.60;;
2940;SDS011;1480;51.456;6.670;2023-07-22T12:28:37;2.83;;;1.40;;
2940;SDS011;1480;51.456;6.670;2023-07-22T12:31:04;3.23;;;1.70;;
2940;SDS011;1480;51.456;6.670;2023-07-22T12:33:31;2.70;;;1.50;;
2940;SDS011;1480;51.456;6.670;2023-07-22T12:35:58;3.30;;;1.70;;
2940;SDS011;1480;51.456;6.670;2023-07-22T12:38:24;3.63;;;1.70;;
2940;SDS011;1480;51.456;6.670;2023-07-22T12:40:51;2.83;;;1.57;;
2940;SDS011;1480;51.456;6.670;2023-07-22T12:43:18;2.13;;;1.13;;
2940;SDS011;1480;51.456;6.670;2023-07-22T12:45:46;2.83;;;1.50;;
2940;SDS011;1480;51.456;6.670;2023-07-22T12:48:12;3.53;;;1.27;;
2940;SDS011;1480;51.456;6.670;2023-07-22T12:50:39;2.87;;;1.70;;
2940;SDS011;1480;51.456;6.670;2023-07-22T12:53:06;2.80;;;1.50;;
2940;SDS011;1480;51.456;6.670;2023-07-22T12:55:33;2.00;;;1.40;;
2940;SDS011;1480;51.456;6.670;2023-07-22T12:58:00;3.70;;;1.40;;
2940;SDS011;1480;51.456;6.670;2023-07-22T13:00:27;1.83;;;1.10;;
2940;SDS011;1480;51.456;6.670;2023-07-22T13:02:55;2.30;;;1.13;;
2940;SDS011;1480;51.456;6.670;2023-07-22T13:05:22;3.90;;;2.00;;
2940;SDS011;1480;51.456;6.670;2023-07-22T13:07:49;2.97;;;1.83;;
2940;SDS011;1480;51.456;6.670;2023-07-22T13:10:17;2.50;;;1.50;;
2940;SDS011;1480;51.456;6.670;2023-07-22T13:12:47;2.20;;;1.40;;
2940;SDS011;1480;51.456;6.670;2023-07-22T13:15:13;3.33;;;1.30;;
2940;SDS011;1480;51.456;6.670;2023-07-22T13:17:40;2.47;;;1.47;;
2940;SDS011;1480;51.456;6.670;2023-07-22T13:20:09;2.77;;;1.50;;
2940;SDS011;1480;51.456;6.670;2023-07-22T13:22:37;3.23;;;1.43;;
2940;SDS011;1480;51.456;6.670;2023-07-22T13:25:05;3.03;;;1.80;;
2940;SDS011;1480;51.456;6.670;2023-07-22T13:27:34;2.10;;;1.30;;
2940;SDS011;1480;51.456;6.670;2023-07-22T13:30:03;1.93;;;1.03;;
2940;SDS011;1480;51.456;6.670;2023-07-22T13:32:32;1.70;;;1.10;;
2940;SDS011;1480;51.456;6.670;2023-07-22T13:34:58;2.30;;;1.50;;
2940;SDS011;1480;51.456;6.670;2023-07-22T13:37:26;2.30;;;1.40;;
2940;SDS011;1480;51.456;6.670;2023-07-22T13:39:53;2.50;;;1.77;;
2940;SDS011;1480;51.456;6.670;2023-07-22T13:42:20;2.40;;;1.60;;
2940;SDS011;1480;51.456;6.670;2023-07-22T13:44:48;2.70;;;1.50;;
2940;SDS011;1480;51.456;6.670;2023-07-22T13:47:15;1.60;;;1.00;;
2940;SDS011;1480;51.456;6.670;2023-07-22T13:49:41;2.13;;;1.30;;
2940;SDS011;1480;51.456;6.670;2023-07-22T13:52:08;2.60;;;1.33;;
2940;SDS011;1480;51.456;6.670;2023-07-22T13:54:36;2.33;;;1.23;;
2940;SDS011;1480;51.456;6.670;2023-07-22T13:57:03;3.57;;;1.53;;
2940;SDS011;1480;51.456;6.670;2023-07-22T13:59:30;3.60;;;1.70;;
2940;SDS011;1480;51.456;6.670;2023-07-22T14:01:57;2.60;;;1.43;;
2940;SDS011;1480;51.456;6.670;2023-07-22T14:04:24;4.03;;;1.27;;
2940;SDS011;1480;51.456;6.670;2023-07-22T14:06:51;3.20;;;1.30;;
2940;SDS011;1480;51.456;6.670;2023-07-22T14:09:18;2.83;;;1.50;;
2940;SDS011;1480;51.456;6.670;2023-07-22T14:11:46;2.80;;;1.37;;
2940;SDS011;1480;51.456;6.670;2023-07-22T14:14:13;3.03;;;1.70;;
2940;SDS011;1480;51.456;6.670;2023-07-22T14:16:39;2.67;;;1.43;;
2940;SDS011;1480;51.456;6.670;2023-07-22T14:19:06;2.13;;;1.17;;
2940;SDS011;1480;51.456;6.670;2023-07-22T14:21:33;2.67;;;1.67;;
2940;SDS011;1480;51.456;6.670;2023-07-22T14:23:59;4.60;;;1.10;;
2940;SDS011;1480;51.456;6.670;2023-07-22T14:26:26;2.60;;;1.10;;
2940;SDS011;1480;51.456;6.670;2023-07-22T14:28:54;3.33;;;1.87;;
2940;SDS011;1480;51.456;6.670;2023-07-22T14:31:21;3.53;;;1.60;;
2940;SDS011;1480;51.456;6.670;2023-07-22T14:33:47;1.87;;;1.33;;
2940;SDS011;1480;51.456;6.670;2023-07-22T14:36:15;2.30;;;1.37;;
2940;SDS011;1480;51.456;6.670;2023-07-22T14:38:43;4.00;;;1.73;;
2940;SDS011;1480;51.456;6.670;2023-07-22T14:41:10;2.70;;;1.70;;
2940;SDS011;1480;51.456;6.670;2023-07-22T14:43:37;2.37;;;1.53;;
2940;SDS011;1480;51.456;6.670;2023-07-22T14:46:05;2.63;;;1.40;;
2940;SDS011;1480;51.456;6.670;2023-07-22T14:48:32;2.07;;;1.17;;
2940;SDS011;1480;51.456;6.670;2023-07-22T14:50:58;1.93;;;1.40;;
2940;SDS011;1480;51.456;6.670;2023-07-22T14:53:25;3.70;;;1.27;;
2940;SDS011;1480;51.456;6.670;2023-07-22T14:55:52;2.40;;;1.30;;
2940;SDS011;1480;51.456;6.670;2023-07-22T14:58:19;4.73;;;1.70;;
2940;SDS011;1480;51.456;6.670;2023-07-22T15:00:46;2.97;;;1.23;;
2940;SDS011;1480;51.456;6.670;2023-07-22T15:03:14;9.53;;;1.57;;
2940;SDS011;1480;51.456;6.670;2023-07-22T15:05:41;2.20;;;1.37;;
2940;SDS011;1480;51.456;6.670;2023-07-22T15:08:08;3.47;;;1.60;;
2940;SDS011;1480;51.456;6.670;2023-07-22T15:10:34;2.20;;;1.60;;
2940;SDS011;1480;51.456;6.670;2023-07-22T15:13:01;2.10;;;1.10;;
2940;SDS011;1480;51.456;6.670;2023-07-22T15:15:28;2.23;;;1.30;;
2940;SDS011;1480;51.456;6.670;2023-07-22T15:17:54;2.07;;;1.07;;